Time;durP1;ratioP1;P1;durP2;ratioP2;P2;SDS_P1;SDS_P2;PMS_P1;PMS_P2;Temp;Humidity;BMP_temperature;BMP_pressure;BME280_temperature;BME280_humidity;BME280_pressure;Samples;Min_cycle;Max_cycle;Signal;HPM_P1;HPM_P2
2023/08/09 00:00:19;;;;;;;5.40;0.68;;;;;;;-146.25;100.00;52216.13;2079486;28;36479;-68
2023/08/09 00:01:21;;;;;;;6.05;0.75;;;;;;;-146.25;100.00;52283.03;2080038;28;32564;-68
2023/08/09 00:02:25;;;;;;;2.70;0.50;;;;;;;-146.25;100.00;52254.66;2079201;28;37319;-67
2023/08/09 00:03:27;;;;;;;5.00;0.80;;;;;;;-146.25;100.00;52242.50;2080420;28;21034;-68
2023/08/09 00:04:29;;;;;;;7.25;0.63;;;;;;;-146.25;100.00;52270.88;2079342;28;42103;-68
2023/08/09 00:05:30;;;;;;;3.65;0.73;;;;;;;-146.25;100.00;52240.47;2079574;28;41452;-68
2023/08/09 00:06:34;;;;;;;6.72;0.77;;;;;;;-146.25;100.00;52254.66;2079501;28;42118;-68
2023/08/09 00:07:38;;;;;;;6.50;0.80;;;;;;;-146.25;100.00;52238.44;2079665;28;34661;-70
2023/08/09 00:08:39;;;;;;;3.47;0.80;;;;;;;-146.25;100.00;52248.56;2079777;28;20782;-69
2023/08/09 00:09:41;;;;;;;2.95;0.60;;;;;;;-146.25;100.00;52283.03;2079363;28;34065;-69
2023/08/09 00:10:43;;;;;;;5.63;0.70;;;;;;;-146.25;100.00;52254.66;2079564;28;35104;-69
2023/08/09 00:11:45;;;;;;;3.08;0.70;;;;;;;-146.25;100.00;52254.66;2080236;28;24902;-69
2023/08/09 00:12:48;;;;;;;3.92;0.70;;;;;;;-146.25;100.00;52228.28;2079693;28;34975;-69
2023/08/09 00:13:49;;;;;;;2.65;0.70;;;;;;;-146.25;100.00;52226.25;2079264;28;34163;-69
2023/08/09 00:14:51;;;;;;;5.82;0.80;;;;;;;-146.25;100.00;52254.66;2071337;28;35078;-69
2023/08/09 00:15:53;;;;;;;5.60;0.80;;;;;;;-146.25;100.00;52297.22;2079490;28;20179;-69
2023/08/09 00:16:57;;;;;;;4.35;0.98;;;;;;;-146.25;100.00;52293.19;2079692;28;34659;-69
2023/08/09 00:18:00;;;;;;;5.05;0.90;;;;;;;-146.25;100.00;52268.84;2080465;28;20097;-68
2023/08/09 00:19:06;;;;;;;2.83;0.52;;;;;;;-146.25;100.00;52260.72;2080377;28;20085;-67
2023/08/09 00:20:09;;;;;;;9.88;0.60;;;;;;;-146.25;100.00;52264.78;2078528;28;40646;-67
2023/08/09 00:21:11;;;;;;;4.13;0.88;;;;;;;-146.25;100.00;52256.69;2079609;28;20073;-68
2023/08/09 00:22:13;;;;;;;2.83;0.80;;;;;;;-146.25;100.00;52254.66;2078996;28;37899;-68
2023/08/09 00:23:14;;;;;;;3.08;0.80;;;;;;;-146.25;100.00;52266.81;2079511;28;34060;-67
2023/08/09 00:24:16;;;;;;;3.05;0.85;;;;;;;-146.25;100.00;52274.94;2079778;28;35877;-67
2023/08/09 00:25:20;;;;;;;3.75;0.70;;;;;;;-146.25;100.00;52268.84;2079391;28;36795;-68
2023/08/09 00:26:22;;;;;;;5.53;0.82;;;;;;;-146.25;100.00;52258.72;2079309;28;36347;-68
2023/08/09 00:27:24;;;;;;;6.53;0.98;;;;;;;-146.25;100.00;52203.97;2080188;28;20370;-67
2023/08/09 00:28:25;;;;;;;7.25;1.10;;;;;;;-146.25;100.00;52242.50;2079891;28;30677;-67
2023/08/09 00:29:27;;;;;;;4.18;0.90;;;;;;;-146.25;100.00;52226.25;2080139;28;20953;-67
2023/08/09 00:30:29;;;;;;;3.67;0.80;;;;;;;-146.25;100.00;52274.94;2079031;28;31788;-66
2023/08/09 00:31:31;;;;;;;3.00;0.88;;;;;;;-146.25;100.00;52256.69;2079258;28;20041;-69
2023/08/09 00:32:34;;;;;;;4.88;1.13;;;;;;;-146.25;100.00;52201.94;2080092;28;20034;-68
2023/08/09 00:33:36;;;;;;;7.20;1.42;;;;;;;-146.25;100.00;52246.53;2079177;28;27898;-69
2023/08/09 00:34:37;;;;;;;6.55;0.95;;;;;;;-146.25;100.00;52238.44;2079955;28;20050;-68
2023/08/09 00:35:39;;;;;;;3.38;0.80;;;;;;;-146.25;100.00;52262.75;2080121;28;20249;-69
2023/08/09 00:36:41;;;;;;;6.40;1.10;;;;;;;-146.25;100.00;52260.72;2079430;28;23643;-68
2023/08/09 00:37:43;;;;;;;5.70;1.17;;;;;;;-146.25;100.00;52246.53;2079208;28;20847;-69
2023/08/09 00:38:45;;;;;;;5.43;1.20;;;;;;;-146.25;100.00;52283.03;2079898;28;20939;-69
2023/08/09 00:39:49;;;;;;;2.58;0.93;;;;;;;-146.25;100.00;52291.16;2079482;28;33254;-69
2023/08/09 00:40:51;;;;;;;4.28;1.10;;;;;;;-146.25;100.00;52262.75;2080325;28;20909;-69
2023/08/09 00:41:53;;;;;;;3.97;1.30;;;;;;;-146.25;100.00;52226.25;2079171;28;20076;-69
2023/08/09 00:42:54;;;;;;;3.97;1.40;;;;;;;-146.25;100.00;52222.22;2079379;28;24985;-69
2023/08/09 00:43:56;;;;;;;6.35;1.60;;;;;;;-146.25;100.00;52274.94;2079885;28;26848;-69
2023/08/09 00:44:58;;;;;;;6.43;1.23;;;;;;;-146.25;100.00;52264.78;2080128;28;29304;-69
2023/08/09 00:46:00;;;;;;;4.72;1.27;;;;;;;-146.25;100.00;52258.72;2079971;28;20175;-69
2023/08/09 00:47:02;;;;;;;4.68;1.45;;;;;;;-146.25;100.00;52250.59;2070899;28;26981;-69
2023/08/09 00:48:06;;;;;;;6.50;1.15;;;;;;;-146.25;100.00;52234.38;2070688;28;30294;-69
2023/08/09 00:49:09;;;;;;;6.72;1.40;;;;;;;-146.25;100.00;52250.59;2079068;28;30449;-69
2023/08/09 00:50:11;;;;;;;5.32;1.55;;;;;;;-146.25;100.00;52250.59;2070894;28;30814;-67
2023/08/09 00:51:13;;;;;;;9.60;2.03;;;;;;;-146.25;100.00;52254.66;2063050;28;20785;-69
2023/08/09 00:52:19;;;;;;;9.68;1.85;;;;;;;-146.25;100.00;52254.66;2063384;28;20155;-67
2023/08/09 00:53:24;;;;;;;4.90;1.50;;;;;;;-146.25;100.00;52226.25;2071454;28;28565;-70
2023/08/09 00:54:27;;;;;;;4.68;1.88;;;;;;;-146.25;100.00;52222.22;2079043;28;30699;-68
2023/08/09 00:55:29;;;;;;;7.28;1.90;;;;;;;-146.25;100.00;52232.34;2079994;28;23672;-69
2023/08/09 00:56:31;;;;;;;5.32;1.48;;;;;;;-146.25;100.00;52236.41;2079448;28;20137;-69
2023/08/09 00:57:33;;;;;;;5.30;1.50;;;;;;;-146.25;100.00;52258.72;2079214;28;28952;-69
2023/08/09 00:58:35;;;;;;;8.48;1.95;;;;;;;-146.25;100.00;52212.06;2079889;28;26331;-69
2023/08/09 00:59:36;;;;;;;5.30;1.75;;;;;;;-146.25;100.00;52268.84;2079505;28;20154;-68
2023/08/09 01:00:38;;;;;;;8.27;2.50;;;;;;;-146.25;100.00;52260.72;2071328;28;20047;-68
2023/08/09 01:01:40;;;;;;;7.07;2.47;;;;;;;-146.25;100.00;52272.91;2079089;28;22934;-69
2023/08/09 01:02:42;;;;;;;3.15;1.70;;;;;;;-146.25;100.00;52248.56;2087862;28;20180;-69
2023/08/09 01:03:44;;;;;;;3.58;1.98;;;;;;;-146.25;100.00;52246.53;2078712;28;30295;-68
2023/08/09 01:04:47;;;;;;;5.03;1.73;;;;;;;-146.25;100.00;52258.72;2079457;28;20042;-68
2023/08/09 01:06:29;;;;;;;4.25;2.03;;;;;;;-146.25;100.00;52248.56;2080100;28;20037;-70
2023/08/09 01:07:48;;;;;;;7.20;2.30;;;;;;;-146.25;100.00;52258.72;2073551;28;26966;-71
2023/08/09 01:09:22;;;;;;;5.53;1.73;;;;;;;-146.25;100.00;52240.47;2079974;28;20820;-71
2023/08/09 01:10:34;;;;;;;6.18;1.98;;;;;;;-146.25;100.00;52220.19;2079531;28;31464;-71
2023/08/09 01:11:48;;;;;;;8.73;2.20;;;;;;;-146.25;100.00;52248.56;2079154;28;31062;-71
2023/08/09 01:12:58;;;;;;;6.53;2.40;;;;;;;-146.25;100.00;52208.03;2081219;28;33231;-71
2023/08/09 01:14:06;;;;;;;6.88;2.58;;;;;;;-146.25;100.00;52242.50;2079200;28;35592;-71
2023/08/09 01:15:12;;;;;;;4.68;2.70;;;;;;;-146.25;100.00;52199.91;2080454;28;33984;-71
2023/08/09 01:16:17;;;;;;;5.28;2.67;;;;;;;-146.25;100.00;52258.72;2078287;28;31586;-70
2023/08/09 01:17:21;;;;;;;5.47;3.03;;;;;;;-146.25;100.00;52201.94;2071880;28;20093;-69
2023/08/09 01:18:26;;;;;;;5.93;2.90;;;;;;;-146.25;100.00;52246.53;2070522;28;21000;-69
2023/08/09 01:19:41;;;;;;;5.57;2.60;;;;;;;-146.25;100.00;52214.09;2071701;28;32056;-70
2023/08/09 01:20:49;;;;;;;7.30;2.90;;;;;;;-146.25;100.00;52201.94;2081141;28;20038;-69
2023/08/09 01:21:55;;;;;;;4.63;2.78;;;;;;;-146.25;100.00;52222.22;2080441;28;28813;-65
2023/08/09 01:23:03;;;;;;;9.70;3.35;;;;;;;-146.25;100.00;52260.72;2072262;28;20050;-65
2023/08/09 01:24:12;;;;;;;8.02;3.95;;;;;;;-146.25;100.00;52230.31;2058326;28;27960;-65
2023/08/09 01:25:14;;;;;;;8.07;3.67;;;;;;;-146.25;100.00;52240.47;2067075;28;26512;-66
2023/08/09 01:26:16;;;;;;;7.68;3.10;;;;;;;-146.25;100.00;52244.50;2064930;28;32643;-66
2023/08/09 01:27:18;;;;;;;8.70;3.55;;;;;;;-146.25;100.00;52234.38;2072228;28;31213;-65
2023/08/09 01:28:20;;;;;;;7.00;2.95;;;;;;;-146.25;100.00;52242.50;2081738;28;20049;-65
2023/08/09 01:29:21;;;;;;;6.22;3.38;;;;;;;-146.25;100.00;52242.50;2080682;28;20862;-66
2023/08/09 01:30:23;;;;;;;7.88;3.75;;;;;;;-146.25;100.00;52212.06;2072435;28;28615;-66
2023/08/09 01:31:30;;;;;;;8.77;3.42;;;;;;;-146.25;100.00;52228.28;2080211;28;20034;-66
2023/08/09 01:32:33;;;;;;;6.95;3.33;;;;;;;-146.25;100.00;52230.31;2081723;28;20089;-66
2023/08/09 01:33:35;;;;;;;7.70;3.90;;;;;;;-146.25;100.00;52230.31;2081241;28;20038;-66
2023/08/09 01:34:38;;;;;;;7.88;3.80;;;;;;;-146.25;100.00;52246.53;2081511;28;25505;-66
2023/08/09 01:35:54;;;;;;;7.43;3.80;;;;;;;-146.25;100.00;52238.44;2080824;28;24502;-65
2023/08/09 01:37:06;;;;;;;6.78;3.72;;;;;;;-146.25;100.00;52264.78;2080390;28;32399;-67
2023/08/09 01:38:19;;;;;;;12.05;4.20;;;;;;;-146.25;100.00;52234.38;2065732;28;20054;-67
2023/08/09 01:39:27;;;;;;;7.03;3.60;;;;;;;-146.25;100.00;52232.34;2069213;28;20042;-65
2023/08/09 01:40:32;;;;;;;6.18;3.55;;;;;;;-146.25;100.00;52256.69;2080392;28;35996;-68
2023/08/09 01:41:36;;;;;;;5.82;3.50;;;;;;;-146.25;100.00;52250.59;2080575;28;20097;-65
2023/08/09 01:42:40;;;;;;;5.78;3.40;;;;;;;-146.25;100.00;52197.88;2080164;28;27127;-67
2023/08/09 01:43:46;;;;;;;7.03;4.15;;;;;;;-146.25;100.00;52220.19;2081003;28;23027;-69
2023/08/09 01:44:50;;;;;;;6.20;3.50;;;;;;;-146.25;100.00;52222.22;2072017;28;33059;-68
2023/08/09 01:45:52;;;;;;;11.23;4.50;;;;;;;-146.25;100.00;52230.31;2065299;28;20912;-68
2023/08/09 01:46:54;;;;;;;8.52;4.15;;;;;;;-146.25;100.00;52234.38;2079893;28;33343;-65
2023/08/09 01:47:56;;;;;;;10.98;4.05;;;;;;;-146.25;100.00;52238.44;2071929;28;32014;-68
2023/08/09 01:49:12;;;;;;;11.65;4.90;;;;;;;-146.25;100.00;52226.25;2064445;28;24205;-68
2023/08/09 01:50:25;;;;;;;7.88;4.40;;;;;;;-146.25;100.00;52230.31;2080870;28;20041;-65
2023/08/09 01:51:27;;;;;;;9.82;4.43;;;;;;;-146.25;100.00;52220.19;2080405;28;28150;-65
2023/08/09 01:52:31;;;;;;;7.53;4.40;;;;;;;-146.25;100.00;52220.19;2072010;28;25230;-65
2023/08/09 01:53:33;;;;;;;11.10;4.88;;;;;;;-146.25;100.00;52210.03;2072567;28;26520;-66
2023/08/09 01:54:35;;;;;;;11.45;4.50;;;;;;;-146.25;100.00;52218.16;2080101;28;25594;-65
2023/08/09 01:55:41;;;;;;;11.07;4.60;;;;;;;-146.25;100.00;52234.38;2081721;28;20057;-66
2023/08/09 01:56:44;;;;;;;9.40;4.90;;;;;;;-146.25;100.00;52240.47;2080072;28;20049;-67
2023/08/09 01:57:47;;;;;;;8.93;4.78;;;;;;;-146.25;100.00;52214.09;2080916;28;20149;-65
2023/08/09 01:58:49;;;;;;;11.07;5.15;;;;;;;-146.25;100.00;52234.38;2072260;28;20046;-64
2023/08/09 01:59:51;;;;;;;7.50;4.85;;;;;;;-146.25;100.00;52230.31;2072586;28;20046;-65
2023/08/09 02:00:54;;;;;;;9.05;4.82;;;;;;;-146.25;100.00;52254.66;2077258;28;20034;-65
2023/08/09 02:01:56;;;;;;;11.25;5.43;;;;;;;-146.25;100.00;52206.00;2088532;28;20046;-65
2023/08/09 02:02:58;;;;;;;9.45;5.03;;;;;;;-146.25;100.00;52197.88;2088542;28;33525;-69
2023/08/09 02:04:00;;;;;;;10.30;5.32;;;;;;;-146.25;100.00;52224.25;2088767;28;25697;-68
2023/08/09 02:05:01;;;;;;;11.10;6.05;;;;;;;-146.25;100.00;52230.31;2087822;28;27324;-67
2023/08/09 02:06:03;;;;;;;11.57;5.82;;;;;;;-146.25;100.00;52212.06;2079567;28;28861;-69
2023/08/09 02:07:08;;;;;;;9.52;5.60;;;;;;;-146.25;100.00;52222.22;2088347;28;20074;-69
2023/08/09 02:08:10;;;;;;;13.77;5.97;;;;;;;-146.25;100.00;52165.44;2088287;28;25916;-68
2023/08/09 02:09:12;;;;;;;12.93;6.32;;;;;;;-146.25;100.00;52250.59;2087579;28;34942;-68
2023/08/09 02:10:14;;;;;;;11.05;6.30;;;;;;;-146.25;100.00;52206.00;2088476;28;29088;-69
2023/08/09 02:11:16;;;;;;;15.00;6.28;;;;;;;-146.25;100.00;52262.75;2087988;28;28688;-70
2023/08/09 02:12:18;;;;;;;11.15;6.13;;;;;;;-146.25;100.00;52234.38;2089461;28;24491;-65
2023/08/09 02:13:19;;;;;;;10.20;6.22;;;;;;;-146.25;100.00;52226.25;2088860;28;24442;-66
2023/08/09 02:14:21;;;;;;;11.00;6.13;;;;;;;-146.25;100.00;52218.16;2089400;28;20034;-68
2023/08/09 02:15:24;;;;;;;12.23;6.13;;;;;;;-146.25;100.00;52169.50;2088229;28;20453;-66
2023/08/09 02:16:27;;;;;;;16.40;6.28;;;;;;;-146.25;100.00;52208.03;2080289;28;29337;-66
2023/08/09 02:17:29;;;;;;;12.38;6.68;;;;;;;-146.25;100.00;52266.81;2087537;28;32376;-65
2023/08/09 02:18:33;;;;;;;8.90;6.38;;;;;;;-146.25;100.00;52222.22;2089253;28;20887;-66
2023/08/09 02:19:36;;;;;;;11.32;6.90;;;;;;;-146.25;100.00;52242.50;2087856;28;29794;-67
2023/08/09 02:20:38;;;;;;;18.63;7.60;;;;;;;-146.25;100.00;52218.16;2088048;28;31807;-67
2023/08/09 02:21:43;;;;;;;10.60;6.68;;;;;;;-146.25;100.00;52226.25;2088542;28;20049;-66
2023/08/09 02:22:48;;;;;;;12.50;7.20;;;;;;;-146.25;100.00;52226.25;2089273;28;20128;-66
2023/08/09 02:23:54;;;;;;;12.82;7.35;;;;;;;-146.25;100.00;52256.69;2089017;28;20037;-67
2023/08/09 02:24:56;;;;;;;11.07;6.22;;;;;;;-146.25;100.00;52236.41;2088907;28;20859;-66
2023/08/09 02:25:57;;;;;;;15.75;7.38;;;;;;;-146.25;100.00;52242.50;2080842;28;20030;-69
2023/08/09 02:27:02;;;;;;;15.07;7.93;;;;;;;-146.25;100.00;52238.44;2088516;28;20884;-66
2023/08/09 02:28:05;;;;;;;12.13;6.45;;;;;;;-146.25;100.00;52226.25;2088987;28;20045;-66
2023/08/09 02:29:06;;;;;;;12.43;7.00;;;;;;;-146.25;100.00;52214.09;2088942;28;32592;-67
2023/08/09 02:30:12;;;;;;;10.38;6.30;;;;;;;-146.25;100.00;52234.38;2079806;28;29847;-65
2023/08/09 02:31:13;;;;;;;14.10;8.25;;;;;;;-146.25;100.00;52238.44;2080384;28;30777;-64
2023/08/09 02:32:15;;;;;;;13.98;7.90;;;;;;;-146.25;100.00;52242.50;2087728;28;33246;-65
2023/08/09 02:33:21;;;;;;;12.10;7.55;;;;;;;-146.25;100.00;52208.03;2089263;28;20037;-65
2023/08/09 02:34:22;;;;;;;15.38;8.02;;;;;;;-146.25;100.00;52238.44;2087698;28;35584;-65
2023/08/09 02:35:24;;;;;;;16.95;7.70;;;;;;;-146.25;100.00;52226.25;2087924;28;32214;-68
2023/08/09 02:36:29;;;;;;;13.77;8.45;;;;;;;-146.25;100.00;52224.25;2088887;28;20192;-66
2023/08/09 02:37:31;;;;;;;17.85;7.93;;;;;;;-146.25;100.00;52242.50;2088242;28;25731;-65
2023/08/09 02:38:34;;;;;;;15.05;8.02;;;;;;;-146.25;100.00;52228.28;2080473;28;20045;-68
2023/08/09 02:39:38;;;;;;;17.38;8.48;;;;;;;-146.25;100.00;52224.25;2088330;28;31219;-67
2023/08/09 02:40:42;;;;;;;15.25;8.90;;;;;;;-146.25;100.00;52234.38;2088774;28;20231;-68
2023/08/09 02:41:44;;;;;;;13.00;7.97;;;;;;;-146.25;100.00;52250.59;2087874;28;28273;-68
2023/08/09 02:42:46;;;;;;;17.58;8.98;;;;;;;-146.25;100.00;52226.25;2087789;28;31551;-67
2023/08/09 02:43:48;;;;;;;15.25;7.97;;;;;;;-146.25;100.00;52232.34;2088082;28;31340;-67
2023/08/09 02:44:49;;;;;;;18.48;8.93;;;;;;;-146.25;100.00;52214.09;2088567;28;32383;-67
2023/08/09 02:45:53;;;;;;;15.57;9.48;;;;;;;-146.25;100.00;52206.00;2089532;28;20038;-66
2023/08/09 02:46:55;;;;;;;15.43;9.02;;;;;;;-146.25;100.00;52238.44;2088481;28;21179;-68
2023/08/09 02:48:03;;;;;;;17.48;9.23;;;;;;;-146.25;100.00;52240.47;2089061;28;20045;-68
2023/08/09 02:49:04;;;;;;;15.07;9.00;;;;;;;-146.25;100.00;52242.50;2088473;28;26427;-65
2023/08/09 02:50:09;;;;;;;21.67;9.50;;;;;;;-146.25;100.00;52203.97;2088043;28;32880;-68
2023/08/09 02:51:11;;;;;;;17.65;9.07;;;;;;;-146.25;100.00;52218.16;2080549;28;20919;-66
2023/08/09 02:52:13;;;;;;;18.42;9.60;;;;;;;-146.25;100.00;52208.03;2080486;28;20042;-67
2023/08/09 02:53:16;;;;;;;13.55;8.43;;;;;;;-146.25;100.00;52240.47;2087830;28;33249;-67
2023/08/09 02:54:18;;;;;;;17.27;9.07;;;;;;;-146.25;100.00;52252.63;2088653;28;20030;-68
2023/08/09 02:55:20;;;;;;;18.25;9.98;;;;;;;-146.25;100.00;52206.00;2088020;28;25582;-68
2023/08/09 02:56:22;;;;;;;15.85;8.75;;;;;;;-146.25;100.00;52230.31;2080416;28;20089;-66
2023/08/09 02:57:24;;;;;;;15.05;8.43;;;;;;;-146.25;100.00;52236.41;2079852;28;28027;-66
2023/08/09 02:58:26;;;;;;;16.00;9.85;;;;;;;-146.25;100.00;52258.72;2088763;28;20119;-68
2023/08/09 02:59:28;;;;;;;17.38;8.68;;;;;;;-146.25;100.00;52212.06;2087815;28;20867;-68
2023/08/09 03:00:33;;;;;;;17.65;9.48;;;;;;;-146.25;100.00;52220.19;2087907;28;20879;-68
2023/08/09 03:01:36;;;;;;;15.60;9.23;;;;;;;-146.25;100.00;52250.59;2088712;28;20048;-65
2023/08/09 03:02:41;;;;;;;17.08;10.13;;;;;;;-146.25;100.00;52254.66;2088694;28;20132;-65
2023/08/09 03:03:45;;;;;;;17.42;10.05;;;;;;;-146.25;100.00;52187.75;2088333;28;20037;-66
2023/08/09 03:04:47;;;;;;;16.60;9.40;;;;;;;-146.25;100.00;52224.25;2088925;28;20034;-67
2023/08/09 03:05:49;;;;;;;20.30;9.52;;;;;;;-146.25;100.00;52238.44;2088768;28;20160;-68
2023/08/09 03:06:53;;;;;;;16.10;8.80;;;;;;;-146.25;100.00;52222.22;2089146;28;20156;-68
2023/08/09 03:07:55;;;;;;;22.00;9.35;;;;;;;-146.25;100.00;52256.69;2088350;28;20046;-71
2023/08/09 03:08:57;;;;;;;20.42;9.48;;;;;;;-146.25;100.00;52244.50;2079859;28;24046;-65
2023/08/09 03:09:59;;;;;;;19.15;9.88;;;;;;;-146.25;100.00;52252.63;2088287;28;20041;-67
2023/08/09 03:11:03;;;;;;;17.88;9.48;;;;;;;-146.25;100.00;52220.19;2087804;28;30391;-66
2023/08/09 03:12:05;;;;;;;17.80;10.02;;;;;;;-146.25;100.00;52268.84;2088277;28;20091;-65
2023/08/09 03:13:07;;;;;;;17.48;10.30;;;;;;;-146.25;100.00;52238.44;2088669;28;29518;-65
2023/08/09 03:14:10;;;;;;;18.77;9.55;;;;;;;-146.25;100.00;52244.50;2088612;28;20677;-64
2023/08/09 03:15:16;;;;;;;14.10;8.95;;;;;;;-146.25;100.00;52246.53;2084900;28;20117;-65
2023/08/09 03:16:18;;;;;;;20.33;9.30;;;;;;;-146.25;100.00;52246.53;2088321;28;20142;-65
2023/08/09 03:17:21;;;;;;;16.77;9.45;;;;;;;-146.25;100.00;52256.69;2079902;28;20812;-67
2023/08/09 03:18:22;;;;;;;17.00;9.68;;;;;;;-146.25;100.00;52218.16;2079387;28;26884;-65
2023/08/09 03:19:24;;;;;;;15.35;9.15;;;;;;;-146.25;100.00;52218.16;2079270;28;20081;-65
2023/08/09 03:20:27;;;;;;;16.58;9.43;;;;;;;-146.25;100.00;52197.88;2080244;28;20933;-65
2023/08/09 03:21:29;;;;;;;18.70;10.20;;;;;;;-146.25;100.00;52256.69;2079622;28;20053;-66
2023/08/09 03:22:34;;;;;;;15.98;8.93;;;;;;;-146.25;100.00;52226.25;2080460;28;20818;-65
2023/08/09 03:23:40;;;;;;;16.40;9.00;;;;;;;-146.25;100.00;52246.53;2088031;28;20156;-65
2023/08/09 03:24:42;;;;;;;20.63;9.32;;;;;;;-146.25;100.00;52201.94;2080306;28;20076;-65
2023/08/09 03:25:44;;;;;;;17.20;9.77;;;;;;;-146.25;100.00;52274.94;2088161;28;20119;-68
2023/08/09 03:26:47;;;;;;;20.45;10.77;;;;;;;-146.25;100.00;52201.94;2088224;28;20029;-71
2023/08/09 03:27:54;;;;;;;19.00;10.95;;;;;;;-146.25;100.00;52234.38;2080207;28;21033;-68
2023/08/09 03:28:56;;;;;;;21.02;10.88;;;;;;;-146.25;100.00;52244.50;2088339;28;20045;-68
2023/08/09 03:30:00;;;;;;;19.35;11.27;;;;;;;-146.25;100.00;52226.25;2087821;28;20038;-68
2023/08/09 03:31:03;;;;;;;17.80;11.25;;;;;;;-146.25;100.00;52232.34;2079741;28;20050;-69
2023/08/09 03:32:09;;;;;;;17.35;10.10;;;;;;;-146.25;100.00;52226.25;2073028;28;20887;-68
2023/08/09 03:33:11;;;;;;;20.75;10.82;;;;;;;-146.25;100.00;52206.00;2079939;28;24697;-69
2023/08/09 03:34:14;;;;;;;20.27;11.05;;;;;;;-146.25;100.00;52212.06;2080123;28;20034;-69
2023/08/09 03:35:19;;;;;;;17.35;10.88;;;;;;;-146.25;100.00;52246.53;2071982;28;20041;-70
2023/08/09 03:36:23;;;;;;;18.70;11.05;;;;;;;-146.25;100.00;52232.34;2080589;28;20088;-68
2023/08/09 03:37:25;;;;;;;20.55;11.38;;;;;;;-146.25;100.00;52226.25;2087890;28;20041;-69
2023/08/09 03:38:26;;;;;;;19.55;10.73;;;;;;;-146.25;100.00;52242.50;2079393;28;28497;-69
2023/08/09 03:39:28;;;;;;;17.67;10.52;;;;;;;-146.25;100.00;52234.38;2088563;28;20046;-69
2023/08/09 03:40:30;;;;;;;19.40;10.40;;;;;;;-146.25;100.00;52240.47;2087589;28;20045;-69
2023/08/09 03:41:32;;;;;;;19.25;10.75;;;;;;;-146.25;100.00;52220.19;2088336;28;20080;-69
2023/08/09 03:42:34;;;;;;;20.77;11.15;;;;;;;-146.25;100.00;52246.53;2079428;28;20113;-69
2023/08/09 03:43:38;;;;;;;21.73;11.00;;;;;;;-146.25;100.00;52226.25;2079809;28;20045;-69
2023/08/09 03:44:39;;;;;;;18.67;10.48;;;;;;;-146.25;100.00;52270.88;2095619;28;26841;-69
2023/08/09 03:45:42;;;;;;;19.02;10.98;;;;;;;-146.25;100.00;52236.41;2087730;28;20050;-68
2023/08/09 03:46:44;;;;;;;18.83;11.43;;;;;;;-146.25;100.00;52238.44;2071350;28;20906;-69
2023/08/09 03:47:46;;;;;;;17.48;10.75;;;;;;;-146.25;100.00;52230.31;2080479;28;20057;-69
2023/08/09 03:48:48;;;;;;;18.48;11.13;;;;;;;-146.25;100.00;52214.09;2087692;28;20045;-69
2023/08/09 03:49:52;;;;;;;22.15;11.40;;;;;;;-146.25;100.00;52238.44;2079838;28;20082;-69
2023/08/09 03:50:54;;;;;;;20.77;10.90;;;;;;;-146.25;100.00;52252.63;2087552;28;22630;-68
2023/08/09 03:51:59;;;;;;;20.95;11.15;;;;;;;-146.25;100.00;52189.78;2087827;28;20065;-69
2023/08/09 03:53:01;;;;;;;26.75;13.15;;;;;;;-146.25;100.00;52250.59;2088072;28;20038;-69
2023/08/09 03:54:03;;;;;;;22.98;11.02;;;;;;;-146.25;100.00;52250.59;2079657;28;20045;-69
2023/08/09 03:55:06;;;;;;;18.35;10.95;;;;;;;-146.25;100.00;52242.50;2071380;28;20054;-69
2023/08/09 03:56:11;;;;;;;19.80;11.48;;;;;;;-146.25;100.00;52228.28;2096288;28;20041;-69
2023/08/09 03:57:12;;;;;;;26.15;11.73;;;;;;;-146.25;100.00;52272.91;2095370;28;28055;-69
2023/08/09 03:58:15;;;;;;;19.30;10.95;;;;;;;-146.25;100.00;52266.81;2088007;28;20053;-69
2023/08/09 03:59:16;;;;;;;18.75;11.15;;;;;;;-146.25;100.00;52256.69;2087706;28;27038;-68
2023/08/09 04:00:22;;;;;;;22.00;11.27;;;;;;;-146.25;100.00;52258.72;2088377;28;25789;-68
2023/08/09 04:01:24;;;;;;;23.33;12.02;;;;;;;-146.25;100.00;52206.00;2087645;28;20161;-69
2023/08/09 04:02:29;;;;;;;19.15;10.90;;;;;;;-146.25;100.00;52254.66;2080209;28;20049;-68
2023/08/09 04:03:32;;;;;;;20.90;11.60;;;;;;;-146.25;100.00;52218.16;2087661;28;25752;-68
2023/08/09 04:04:34;;;;;;;17.63;10.88;;;;;;;-146.25;100.00;52258.72;2087646;28;27562;-69
2023/08/09 04:05:36;;;;;;;19.20;10.90;;;;;;;-146.25;100.00;52210.03;2087617;28;20041;-68
2023/08/09 04:06:38;;;;;;;15.95;10.68;;;;;;;-146.25;100.00;52274.94;2079300;28;30750;-69
2023/08/09 04:07:42;;;;;;;19.17;10.50;;;;;;;-146.25;100.00;52266.81;2079423;28;28921;-69
2023/08/09 04:08:46;;;;;;;20.92;11.43;;;;;;;-146.25;100.00;52283.03;2080238;28;20041;-69
2023/08/09 04:09:47;;;;;;;20.58;11.52;;;;;;;-146.25;100.00;52268.84;2080217;28;29819;-68
2023/08/09 04:10:49;;;;;;;20.88;11.35;;;;;;;-146.25;100.00;52246.53;2087436;28;33059;-69
2023/08/09 04:11:53;;;;;;;17.90;10.45;;;;;;;-146.25;100.00;52230.31;2088388;28;20045;-69
2023/08/09 04:12:55;;;;;;;17.98;10.95;;;;;;;-146.25;100.00;52236.41;2087301;28;32470;-69
2023/08/09 04:13:57;;;;;;;20.80;11.25;;;;;;;-146.25;100.00;52256.69;2087443;28;26762;-69
2023/08/09 04:15:06;;;;;;;19.98;11.35;;;;;;;-146.25;100.00;52248.56;2088020;28;20157;-69
2023/08/09 04:16:08;;;;;;;15.90;10.43;;;;;;;-146.25;100.00;52258.72;2079084;28;31059;-69
2023/08/09 04:17:10;;;;;;;16.85;10.25;;;;;;;-146.25;100.00;52260.72;2079019;28;28481;-69
2023/08/09 04:18:16;;;;;;;15.95;10.15;;;;;;;-146.25;100.00;52258.72;2087334;28;26193;-69
2023/08/09 04:19:18;;;;;;;16.25;10.32;;;;;;;-146.25;100.00;52270.88;2114139;22;29086;-73
2023/08/09 04:20:22;;;;;;;22.48;11.02;;;;;;;-146.25;100.00;52252.63;2099981;28;20128;-73
2023/08/09 04:21:24;;;;;;;16.38;10.23;;;;;;;-146.25;100.00;52242.50;2095628;28;31238;-73
2023/08/09 04:22:26;;;;;;;15.25;9.55;;;;;;;-146.25;100.00;52246.53;2095777;28;25271;-73
2023/08/09 04:23:28;;;;;;;17.00;9.90;;;;;;;-146.25;100.00;52283.03;2096926;28;20154;-73
2023/08/09 04:24:32;;;;;;;18.85;9.65;;;;;;;-146.25;100.00;52244.50;2096821;28;20041;-73
2023/08/09 04:25:34;;;;;;;14.50;9.57;;;;;;;-146.25;100.00;52242.50;2096383;28;28585;-73
2023/08/09 04:26:40;;;;;;;16.08;9.13;;;;;;;-146.25;100.00;52262.75;2096800;28;20162;-73
2023/08/09 04:27:41;;;;;;;20.05;10.02;;;;;;;-146.25;100.00;52252.63;2096486;28;31475;-73
2023/08/09 04:28:43;;;;;;;15.00;9.55;;;;;;;-146.25;100.00;52254.66;2096344;28;20165;-73
2023/08/09 04:29:45;;;;;;;15.80;9.32;;;;;;;-146.25;100.00;52254.66;2096176;28;34338;-72
2023/08/09 04:30:47;;;;;;;15.60;8.85;;;;;;;-146.25;100.00;52264.78;2095645;28;37196;-72
2023/08/09 04:31:49;;;;;;;14.65;9.43;;;;;;;-146.25;100.00;52248.56;2096050;28;33786;-72
2023/08/09 04:32:54;;;;;;;16.42;9.85;;;;;;;-146.25;100.00;52248.56;2096227;28;36891;-72
2023/08/09 04:33:56;;;;;;;14.70;9.25;;;;;;;-146.25;100.00;52236.41;2095260;28;34607;-72
2023/08/09 04:34:57;;;;;;;14.95;9.65;;;;;;;-146.25;100.00;52240.47;2095007;28;35614;-72
2023/08/09 04:35:59;;;;;;;13.68;8.43;;;;;;;-146.25;100.00;52281.00;2095232;28;35117;-72
2023/08/09 04:37:01;;;;;;;13.38;8.68;;;;;;;-146.25;100.00;52252.63;2095690;28;20088;-72
2023/08/09 04:38:03;;;;;;;15.98;8.93;;;;;;;-146.25;100.00;52274.94;2095243;28;36805;-73
2023/08/09 04:39:09;;;;;;;14.60;8.82;;;;;;;-146.25;100.00;52258.72;2095287;28;33788;-72
2023/08/09 04:40:11;;;;;;;13.90;9.27;;;;;;;-146.25;100.00;52307.38;2095742;28;34376;-72
2023/08/09 04:41:13;;;;;;;10.85;7.75;;;;;;;-146.25;100.00;52256.69;2095530;28;30481;-72
2023/08/09 04:42:15;;;;;;;12.20;7.97;;;;;;;-146.25;100.00;52266.81;2096273;28;20154;-72
2023/08/09 04:43:17;;;;;;;15.73;7.50;;;;;;;-146.25;100.00;52272.91;2095536;28;34923;-71
2023/08/09 04:44:18;;;;;;;8.75;6.82;;;;;;;-146.25;100.00;52266.81;2096186;28;36941;-73
2023/08/09 04:45:24;;;;;;;11.55;6.53;;;;;;;-146.25;100.00;52283.03;2096174;28;20041;-72